Time;durP1;ratioP1;P1;durP2;ratioP2;P2;SDS_P1;SDS_P2;PMS_P1;PMS_P2;Temp;Humidity;BMP_temperature;BMP_pressure;BME280_temperature;BME280_humidity;BME280_pressure;Samples;Min_cycle;Max_cycle;Signal;HPM_P1;HPM_P2
2022/05/02 00:01:25;;;;;;;10.07;4.63;;;;;;;13.56;85.41;100757.91;5052551;28;20071;-76
2022/05/02 00:03:50;;;;;;;7.80;4.15;;;;;;;13.54;84.51;100752.66;5052637;28;20107;-78
2022/05/02 00:06:16;;;;;;;8.13;4.20;;;;;;;13.58;85.21;100751.91;5051960;28;20104;-75
2022/05/02 00:08:42;;;;;;;7.78;4.45;;;;;;;13.62;84.77;100747.69;5052095;28;20105;-77
2022/05/02 00:11:07;;;;;;;12.80;5.22;;;;;;;13.70;84.90;100759.16;5052012;28;20053;-78
2022/05/02 00:13:33;;;;;;;8.38;4.55;;;;;;;13.69;84.87;100751.34;5052112;28;20029;-77
2022/05/02 00:15:58;;;;;;;12.90;4.82;;;;;;;13.49;84.63;100717.91;5051652;28;20029;-77
2022/05/02 00:18:24;;;;;;;10.23;4.40;;;;;;;13.60;84.52;100733.78;5052112;28;20028;-78
2022/05/02 00:20:49;;;;;;;9.40;4.22;;;;;;;13.63;84.09;100739.06;5034019;28;20036;-78
2022/05/02 00:23:15;;;;;;;9.95;4.32;;;;;;;13.55;83.46;100730.19;5052375;28;20029;-74
2022/05/02 00:25:41;;;;;;;11.05;4.63;;;;;;;13.66;83.82;100751.28;5052174;28;20048;-78
2022/05/02 00:28:13;;;;;;;11.38;5.20;;;;;;;13.58;84.20;100761.41;5034124;28;20163;-77
2022/05/02 00:30:38;;;;;;;8.70;4.32;;;;;;;12.46;86.61;100731.09;5052400;28;20094;-76
2022/05/02 00:33:04;;;;;;;7.95;4.47;;;;;;;12.56;86.84;100753.91;5051945;28;20518;-77
2022/05/02 00:35:29;;;;;;;8.75;4.97;;;;;;;12.60;86.71;100750.56;5051661;28;20031;-77
2022/05/02 00:37:55;;;;;;;10.43;4.82;;;;;;;12.69;86.29;100743.97;5034040;28;20029;-74
2022/05/02 00:40:21;;;;;;;8.73;4.82;;;;;;;12.71;86.34;100753.53;5052019;28;20033;-75
2022/05/02 00:42:47;;;;;;;10.68;4.85;;;;;;;12.78;86.11;100770.16;5051645;28;20028;-76
2022/05/02 00:45:15;;;;;;;7.63;5.45;;;;;;;12.43;85.96;100707.72;5049830;28;20025;-77
2022/05/02 00:47:48;;;;;;;8.75;5.10;;;;;;;12.72;86.34;100755.31;5051393;28;20029;-76
2022/05/02 00:50:14;;;;;;;8.75;5.90;;;;;;;12.54;86.33;100723.59;5033627;28;20402;-77
2022/05/02 00:52:39;;;;;;;11.18;5.57;;;;;;;12.65;86.12;100739.47;5051662;28;20117;-74
2022/05/02 00:55:05;;;;;;;11.13;5.30;;;;;;;12.65;85.78;100723.94;5051841;28;20065;-74
2022/05/02 00:57:33;;;;;;;11.30;5.63;;;;;;;12.78;85.26;100733.88;5051312;28;20047;-77
2022/05/02 00:59:58;;;;;;;8.98;5.45;;;;;;;12.43;86.09;100695.63;5051177;28;20467;-76
2022/05/02 01:02:24;;;;;;;9.30;5.55;;;;;;;11.97;87.82;100656.16;5051748;28;20103;-76
2022/05/02 01:04:49;;;;;;;9.40;5.72;;;;;;;12.22;88.96;100726.84;5051406;28;20033;-76
2022/05/02 01:07:21;;;;;;;10.73;5.25;;;;;;;11.81;89.15;100693.53;5051438;28;20039;-77
2022/05/02 01:09:49;;;;;;;9.60;5.30;;;;;;;11.91;89.08;100710.25;5051297;28;20037;-77
2022/05/02 01:12:24;;;;;;;9.38;5.82;;;;;;;12.06;89.18;100738.41;5051375;28;20119;-77
2022/05/02 01:14:53;;;;;;;8.35;5.88;;;;;;;11.97;90.03;100714.78;5051349;28;20068;-77
2022/05/02 01:17:18;;;;;;;8.07;5.55;;;;;;;12.00;89.75;100724.34;5050772;28;20072;-77
2022/05/02 01:19:44;;;;;;;8.68;5.68;;;;;;;11.79;89.98;100690.00;5050876;28;20056;-78
2022/05/02 01:22:10;;;;;;;11.73;5.88;;;;;;;11.82;90.11;100696.97;5051166;28;20020;-78
2022/05/02 01:24:39;;;;;;;8.15;6.07;;;;;;;11.98;90.21;100713.97;5051070;28;20025;-76
2022/05/02 01:27:06;;;;;;;7.88;5.47;;;;;;;12.00;90.24;100714.91;5050302;28;20033;-77
2022/05/02 01:29:33;;;;;;;9.40;5.43;;;;;;;11.80;89.91;100680.50;5050306;28;20040;-77
2022/05/02 01:32:00;;;;;;;11.10;5.90;;;;;;;11.98;89.90;100717.41;5051191;28;20079;-77
2022/05/02 01:34:26;;;;;;;7.25;5.50;;;;;;;11.65;89.92;100658.47;5051104;28;20027;-77
2022/05/02 01:36:51;;;;;;;12.30;6.25;;;;;;;11.82;90.48;100713.41;5050870;28;20107;-77
2022/05/02 01:39:17;;;;;;;7.65;5.88;;;;;;;11.37;91.47;100660.88;5051016;28;20460;-77
2022/05/02 01:41:42;;;;;;;8.90;5.50;;;;;;;11.30;92.42;100714.03;5050579;28;20037;-77
2022/05/02 01:44:09;;;;;;;9.52;5.90;;;;;;;11.17;93.15;100713.56;5015187;28;20076;-76
2022/05/02 01:46:35;;;;;;;9.88;5.68;;;;;;;10.97;93.25;100665.44;5051005;28;20563;-78
2022/05/02 01:49:00;;;;;;;9.65;6.35;;;;;;;10.81;93.05;100641.56;5032795;28;20033;-78
2022/05/02 01:51:26;;;;;;;10.85;6.60;;;;;;;11.07;93.20;100680.47;5050641;28;20025;-78
2022/05/02 01:53:52;;;;;;;10.13;6.15;;;;;;;11.11;92.91;100660.78;5050615;28;20095;-76
2022/05/02 01:56:17;;;;;;;11.55;5.93;;;;;;;11.15;92.50;100658.38;5050373;28;20078;-76
2022/05/02 01:58:43;;;;;;;13.18;6.40;;;;;;;11.11;92.11;100646.16;5032440;28;20040;-76
2022/05/02 02:01:08;;;;;;;12.68;6.13;;;;;;;11.22;92.23;100666.38;5050434;28;20033;-76
2022/05/02 02:03:34;;;;;;;8.85;5.47;;;;;;;10.91;91.99;100619.56;5050397;28;20025;-76
2022/05/02 02:06:00;;;;;;;9.65;5.82;;;;;;;10.81;92.24;100622.63;5050438;28;20021;-74
2022/05/02 02:08:30;;;;;;;8.50;6.35;;;;;;;11.03;93.01;100668.25;5050019;28;20032;-75
2022/05/02 02:10:59;;;;;;;12.32;6.43;;;;;;;10.93;93.44;100661.84;5050461;28;20134;-75
2022/05/02 02:13:24;;;;;;;10.93;6.05;;;;;;;10.83;94.11;100663.19;5049804;28;20479;-77
2022/05/02 02:15:50;;;;;;;10.10;6.70;;;;;;;10.83;94.69;100662.31;5050088;28;20036;-77
2022/05/02 02:18:16;;;;;;;7.93;5.47;;;;;;;10.31;94.20;100581.09;5050172;28;20025;-76
2022/05/02 02:20:45;;;;;;;11.25;6.50;;;;;;;10.48;95.56;100631.69;5050323;28;20045;-77
2022/05/02 02:23:10;;;;;;;9.98;6.80;;;;;;;10.63;95.99;100656.34;5050198;28;20070;-75
2022/05/02 02:25:37;;;;;;;12.70;6.50;;;;;;;10.50;95.70;100617.16;5050147;28;20197;-75
2022/05/02 02:28:04;;;;;;;11.70;6.82;;;;;;;10.60;95.56;100651.06;5049983;28;20033;-74
2022/05/02 02:30:29;;;;;;;9.88;7.13;;;;;;;10.58;95.86;100652.72;5050036;28;20029;-75
2022/05/02 02:32:56;;;;;;;12.10;7.47;;;;;;;10.51;95.86;100625.78;5050058;28;20040;-75
2022/05/02 02:35:22;;;;;;;12.80;6.97;;;;;;;10.50;95.67;100624.91;5031490;28;20045;-75
2022/05/02 02:37:48;;;;;;;13.43;7.15;;;;;;;10.52;95.37;100625.84;5050395;28;20060;-74
2022/05/02 02:40:14;;;;;;;8.50;6.45;;;;;;;10.50;95.48;100655.00;5052702;28;20118;-74
2022/05/02 02:42:40;;;;;;;9.32;7.18;;;;;;;10.15;95.91;100610.53;5053689;28;20040;-74
2022/05/02 02:45:06;;;;;;;11.25;6.68;;;;;;;10.01;97.68;100641.78;5011574;28;20062;-74
2022/05/02 02:47:32;;;;;;;10.48;6.80;;;;;;;10.19;96.76;100636.53;5011791;28;20423;-73
2022/05/02 02:49:58;;;;;;;10.55;7.18;;;;;;;10.25;95.73;100642.75;4995233;28;20048;-75
2022/05/02 02:52:24;;;;;;;13.25;7.03;;;;;;;10.24;95.28;100641.88;5011601;28;20045;-75
2022/05/02 02:54:49;;;;;;;11.50;7.03;;;;;;;10.36;95.19;100646.69;5011573;28;20042;-75
2022/05/02 02:57:15;;;;;;;13.30;7.43;;;;;;;9.91;94.76;100570.03;5011334;28;20084;-75
2022/05/02 02:59:40;;;;;;;11.05;7.30;;;;;;;10.06;95.94;100618.78;5011662;28;20064;-75
2022/05/02 03:02:06;;;;;;;12.10;7.45;;;;;;;10.10;95.95;100624.97;5011628;28;20037;-75
2022/05/02 03:07:17;;;;;;;11.13;7.10;;;;;;;9.94;95.74;100618.28;5011697;28;20118;-76
2022/05/02 03:09:42;;;;;;;12.10;7.10;;;;;;;10.15;95.88;100628.59;5010799;28;20116;-76
2022/05/02 03:12:08;;;;;;;12.25;6.88;;;;;;;10.13;94.84;100617.31;4994731;28;20185;-76
2022/05/02 03:14:34;;;;;;;9.75;7.13;;;;;;;10.06;95.47;100615.34;5011219;28;20112;-76
2022/05/02 03:16:59;;;;;;;14.63;7.40;;;;;;;10.04;96.69;100652.25;5047807;28;20551;-76
2022/05/02 03:19:26;;;;;;;13.80;7.32;;;;;;;9.75;98.07;100652.72;5053909;28;20035;-76
2022/05/02 03:21:52;;;;;;;12.18;7.80;;;;;;;9.29;98.46;100618.94;5053062;28;20033;-76
2022/05/02 03:24:17;;;;;;;12.18;7.93;;;;;;;8.89;100.00;100597.41;5052917;28;20029;-77
2022/05/02 03:26:43;;;;;;;11.10;7.65;;;;;;;9.09;100.00;100663.53;5053097;28;20108;-76
2022/05/02 03:29:08;;;;;;;12.90;7.47;;;;;;;8.81;100.00;100627.09;5053198;28;20033;-77
2022/05/02 03:31:34;;;;;;;11.05;8.18;;;;;;;9.05;100.00;100665.09;5053010;28;20457;-77
2022/05/02 03:33:59;;;;;;;14.30;8.85;;;;;;;9.23;100.00;100649.59;5035329;28;20079;-76
2022/05/02 03:36:25;;;;;;;12.38;8.13;;;;;;;9.09;100.00;100648.09;5053045;28;20025;-78
2022/05/02 03:38:50;;;;;;;12.25;7.60;;;;;;;9.12;100.00;100650.78;5034581;28;20024;-75
2022/05/02 03:41:16;;;;;;;12.02;8.13;;;;;;;8.84;100.00;100632.38;5052609;28;20024;-77
2022/05/02 03:43:42;;;;;;;11.80;7.65;;;;;;;8.74;100.00;100576.13;5052751;28;20206;-77
2022/05/02 03:46:08;;;;;;;17.75;8.35;;;;;;;9.29;100.00;100649.00;5017627;28;20072;-75
2022/05/02 03:48:34;;;;;;;14.35;8.60;;;;;;;9.59;100.00;100659.75;5052856;28;20129;-77
2022/05/02 03:50:59;;;;;;;10.23;7.38;;;;;;;9.65;99.42;100646.28;5051450;28;20028;-78
2022/05/02 03:53:24;;;;;;;11.57;7.80;;;;;;;9.66;98.97;100638.59;5034326;28;20024;-78
2022/05/02 03:55:50;;;;;;;11.43;8.20;;;;;;;9.83;99.10;100661.66;5017206;28;20041;-78
2022/05/02 03:58:15;;;;;;;14.38;8.32;;;;;;;9.68;99.31;100623.19;5052560;28;20039;-74
2022/05/02 04:00:41;;;;;;;15.80;8.65;;;;;;;9.58;99.98;100605.59;5052499;28;20025;-77
2022/05/02 04:03:06;;;;;;;14.93;9.10;;;;;;;9.88;99.60;100637.84;5052415;28;20028;-76
2022/05/02 04:05:32;;;;;;;13.75;9.00;;;;;;;9.82;99.46;100616.94;5052318;28;20060;-75
2022/05/02 04:07:58;;;;;;;13.85;8.77;;;;;;;9.80;99.14;100599.66;5051989;28;20551;-75
2022/05/02 04:10:23;;;;;;;13.18;8.15;;;;;;;9.75;98.94;100588.25;5051938;28;20060;-76
2022/05/02 04:12:48;;;;;;;12.63;8.40;;;;;;;10.06;99.15;100630.81;5044064;28;20040;-76
2022/05/02 04:15:14;;;;;;;11.32;8.48;;;;;;;9.99;98.87;100627.97;5032168;28;20021;-78
2022/05/02 04:17:40;;;;;;;12.65;8.40;;;;;;;9.75;99.81;100620.06;5047779;28;20029;-77
2022/05/02 04:20:08;;;;;;;14.07;8.23;;;;;;;9.50;100.00;100584.63;5051856;28;20029;-79
2022/05/02 04:22:36;;;;;;;18.00;9.23;;;;;;;9.84;99.69;100623.06;5045704;28;20111;-81
2022/05/02 04:25:02;;;;;;;14.65;8.85;;;;;;;9.96;99.32;100634.69;5034285;28;20477;-80
2022/05/02 04:27:28;;;;;;;15.25;8.52;;;;;;;9.86;99.52;100629.13;5052320;28;20079;-80
2022/05/02 04:29:54;;;;;;;12.48;8.18;;;;;;;10.00;99.32;100631.44;5052288;28;20090;-79
2022/05/02 04:32:19;;;;;;;14.05;8.60;;;;;;;9.85;99.12;100600.72;5051855;28;20032;-78
2022/05/02 04:34:44;;;;;;;14.18;8.68;;;;;;;9.93;99.29;100606.19;5051922;28;20021;-78
2022/05/02 04:37:10;;;;;;;13.60;8.15;;;;;;;10.10;99.76;100627.53;5052027;28;20394;-78
2022/05/02 04:39:36;;;;;;;12.02;8.98;;;;;;;10.14;100.00;100629.41;5052194;28;20398;-78
2022/05/02 04:42:02;;;;;;;13.48;8.55;;;;;;;9.79;100.00;100565.22;5051906;28;20471;-78
2022/05/02 04:44:27;;;;;;;19.65;13.35;;;;;;;10.18;100.00;100610.66;5051829;28;20021;-80
2022/05/02 04:46:52;;;;;;;16.38;11.50;;;;;;;10.37;100.00;100627.81;5033652;28;20086;-81
2022/05/02 04:49:18;;;;;;;12.73;8.65;;;;;;;10.25;100.00;100592.03;5033774;28;20020;-79
2022/05/02 04:51:43;;;;;;;16.80;9.77;;;;;;;10.24;100.00;100579.94;5051446;28;20372;-79
2022/05/02 04:54:09;;;;;;;20.42;9.00;;;;;;;10.58;100.00;100632.94;5051453;28;20475;-78
2022/05/02 04:56:34;;;;;;;22.45;8.60;;;;;;;10.56;100.00;100618.22;5051619;28;20490;-77
2022/05/02 04:59:00;;;;;;;16.55;8.23;;;;;;;10.38;99.67;100577.97;5051308;28;20025;-76
2022/05/02 05:01:25;;;;;;;17.27;9.27;;;;;;;10.66;100.00;100605.72;5051214;28;20104;-78
2022/05/02 05:03:51;;;;;;;16.50;9.10;;;;;;;10.87;99.76;100628.03;5051235;28;20029;-77
2022/05/02 05:06:17;;;;;;;19.63;9.90;;;;;;;10.98;98.68;100629.31;5033099;28;20116;-78
2022/05/02 05:08:42;;;;;;;30.13;13.55;;;;;;;10.88;98.46;100606.56;5051115;28;20028;-78
2022/05/02 05:11:17;;;;;;;20.50;9.65;;;;;;;10.96;98.32;100614.59;5051000;28;20057;-77
2022/05/02 05:17:28;;;;;;;19.38;9.18;;;;;;;10.68;97.98;100562.78;5050974;28;20102;-78
2022/05/02 05:20:18;;;;;;;20.92;8.57;;;;;;;10.94;98.06;100592.97;5050617;28;20091;-78
2022/05/02 05:23:17;;;;;;;19.42;8.60;;;;;;;11.26;97.67;100635.50;5051000;28;20033;-78
2022/05/02 05:25:49;;;;;;;;;;;;;;;11.29;96.20;100642.47;5051488;28;20032;-78
2022/05/02 05:28:15;;;;;;;17.30;6.90;;;;;;;11.37;95.34;100643.66;5051115;28;20302;-78
2022/05/02 05:30:45;;;;;;;12.85;6.95;;;;;;;11.34;94.95;100622.88;5050689;28;20025;-79
2022/05/02 05:33:10;;;;;;;;;;;;;;;11.52;95.13;100638.16;5051199;28;20509;-81
2022/05/02 05:36:03;;;;;;;22.15;6.82;;;;;;;11.46;94.76;100620.75;5050557;28;19908;-80
2022/05/02 05:38:48;;;;;;;13.75;6.80;;;;;;;11.65;92.51;100605.84;5050552;28;20048;-80
2022/05/02 05:41:23;;;;;;;14.50;6.38;;;;;;;12.22;89.99;100641.44;5050665;28;20450;-80
2022/05/02 05:44:05;;;;;;;16.55;5.70;;;;;;;12.38;87.88;100653.19;5050281;28;20130;-80
2022/05/02 05:46:43;;;;;;;18.70;6.13;;;;;;;12.28;87.16;100618.34;5050635;28;20025;-78
2022/05/02 05:49:22;;;;;;;17.77;6.22;;;;;;;12.67;82.96;100653.22;5050656;28;20028;-80
2022/05/02 05:52:08;;;;;;;19.50;5.95;;;;;;;12.82;82.32;100647.63;5050419;28;20013;-80
2022/05/02 05:54:40;;;;;;;16.95;5.43;;;;;;;13.09;80.87;100646.72;5050467;28;20033;-80
2022/05/02 05:57:32;;;;;;;21.33;7.07;;;;;;;13.06;81.26;100625.88;5050459;28;20033;-80
2022/05/02 06:00:03;;;;;;;12.75;5.43;;;;;;;13.32;81.28;100660.38;5050225;28;20091;-81
2022/05/02 06:02:49;;;;;;;14.38;5.90;;;;;;;13.38;78.22;100660.56;5049590;28;20030;-77
2022/05/02 06:05:15;;;;;;;13.50;5.88;;;;;;;13.39;78.18;100646.75;5050284;28;20090;-78
2022/05/02 06:07:43;;;;;;;15.93;5.88;;;;;;;13.42;76.11;100648.53;5050187;28;20025;-78
2022/05/02 06:10:09;;;;;;;16.20;5.93;;;;;;;13.46;79.06;100660.78;5049922;28;20033;-78
2022/05/02 06:12:37;;;;;;;11.40;5.00;;;;;;;13.67;78.05;100662.19;5043660;28;20045;-78
2022/05/02 06:20:38;;;;;;;24.30;6.93;;;;;;;14.04;72.13;100664.06;5046351;28;20044;-75
2022/05/02 06:23:08;;;;;;;10.40;4.22;;;;;;;14.22;71.06;100657.59;5044289;28;20487;-77
2022/05/02 06:25:35;;;;;;;;;;;;;;;14.24;68.81;100658.50;5022539;28;20029;-77
2022/05/02 06:28:03;;;;;;;24.48;5.43;;;;;;;14.35;66.98;100658.75;5038798;28;19913;-77
2022/05/02 06:30:30;;;;;;;16.30;4.93;;;;;;;14.35;67.87;100644.03;5038951;28;20468;-76
2022/05/02 06:32:58;;;;;;;7.43;3.22;;;;;;;14.43;68.12;100653.75;5039656;28;20025;-76
2022/05/02 06:35:31;;;;;;;17.90;5.07;;;;;;;14.52;68.29;100641.00;5040714;28;20418;-76
2022/05/02 06:38:15;;;;;;;16.13;4.47;;;;;;;14.78;68.04;100653.72;5039879;28;20029;-76
2022/05/02 06:40:43;;;;;;;19.88;5.00;;;;;;;14.89;67.87;100649.63;5002027;28;20043;-76
2022/05/02 06:43:21;;;;;;;12.63;3.95;;;;;;;14.95;64.77;100641.97;5039635;28;20431;-76
2022/05/02 06:46:04;;;;;;;17.08;4.40;;;;;;;14.94;65.68;100619.44;5039253;28;20025;-77
2022/05/02 06:48:45;;;;;;;27.33;5.45;;;;;;;14.86;66.90;100602.81;5039610;28;20029;-79
2022/05/02 06:51:14;;;;;;;16.58;5.55;;;;;;;15.25;65.00;100646.06;5040008;28;20021;-77
2022/05/02 06:53:56;;;;;;;19.67;6.45;;;;;;;15.36;64.73;100648.91;5038262;28;20108;-77
2022/05/02 06:56:32;;;;;;;36.58;7.47;;;;;;;15.41;64.77;100649.00;5038825;28;20402;-76
2022/05/02 06:59:08;;;;;;;23.95;5.47;;;;;;;15.63;64.96;100645.97;5040838;28;20037;-76
2022/05/02 07:01:46;;;;;;;21.95;6.00;;;;;;;15.82;62.74;100654.16;5022398;28;20226;-76
2022/05/02 07:04:31;;;;;;;8.50;3.70;;;;;;;15.95;63.27;100655.25;5039807;28;20026;-74
2022/05/02 07:07:36;;;;;;;8.77;4.03;;;;;;;16.07;61.81;100654.59;5040867;28;20107;-77
2022/05/02 07:10:12;;;;;;;15.90;4.28;;;;;;;16.01;62.87;100653.66;5038600;28;20069;-77
2022/05/02 07:12:53;;;;;;;35.58;6.65;;;;;;;15.69;62.83;100607.03;5037928;28;20041;-77
2022/05/02 07:15:24;;;;;;;16.48;4.68;;;;;;;15.85;64.21;100628.19;5037996;28;20044;-77
2022/05/02 07:18:05;;;;;;;9.00;3.38;;;;;;;16.10;63.35;100641.63;5038292;28;20033;-77
2022/05/02 07:20:58;;;;;;;7.50;3.67;;;;;;;16.25;63.50;100633.19;5043557;28;20549;-77
2022/05/02 07:23:52;;;;;;;8.30;3.67;;;;;;;16.44;64.11;100636.97;5040096;28;20037;-76
2022/05/02 07:26:20;;;;;;;6.10;3.42;;;;;;;16.53;62.66;100631.88;5023864;28;20112;-77
2022/05/02 07:28:48;;;;;;;5.03;3.20;;;;;;;16.63;62.15;100609.44;5043951;28;20029;-77
2022/05/02 07:31:18;;;;;;;5.38;3.33;;;;;;;16.57;61.97;100604.16;5042496;28;20025;-76
2022/05/02 07:33:46;;;;;;;7.45;3.38;;;;;;;16.58;61.36;100605.91;5041950;28;20032;-76
2022/05/02 07:36:18;;;;;;;4.88;3.03;;;;;;;16.71;62.27;100626.09;5042048;28;20025;-77
2022/05/02 07:38:51;;;;;;;6.70;3.40;;;;;;;16.67;61.01;100600.81;5042199;28;20387;-78
2022/05/02 07:41:23;;;;;;;6.88;3.50;;;;;;;16.90;61.53;100619.38;5042492;28;20052;-75
2022/05/02 07:44:04;;;;;;;5.32;3.17;;;;;;;16.94;60.06;100618.59;5023707;28;20059;-77
2022/05/02 07:46:31;;;;;;;6.35;3.30;;;;;;;16.98;60.95;100604.75;5041270;28;20025;-78
2022/05/02 07:48:58;;;;;;;5.70;3.10;;;;;;;16.93;60.87;100589.91;5042725;28;20021;-78
2022/05/02 07:51:25;;;;;;;9.88;3.20;;;;;;;16.71;60.46;100565.22;5025540;28;20030;-79
2022/05/02 07:53:52;;;;;;;7.82;3.63;;;;;;;17.05;60.73;100604.84;5041215;28;20028;-78
2022/05/02 07:56:22;;;;;;;8.70;3.72;;;;;;;16.92;60.80;100560.34;5042337;28;20021;-77
2022/05/02 07:58:47;;;;;;;;;;;;;;;17.23;60.28;100592.00;5043396;28;20029;-79
2022/05/02 08:01:17;;;;;;;7.93;3.67;;;;;;;17.28;59.41;100592.03;5041619;28;19920;-78
2022/05/02 08:03:43;;;;;;;14.07;4.00;;;;;;;17.33;58.85;100587.75;5041599;28;20021;-78
2022/05/02 08:06:41;;;;;;;21.17;5.50;;;;;;;17.33;59.59;100579.91;5043149;28;20021;-78
2022/05/02 08:09:38;;;;;;;34.88;7.65;;;;;;;17.10;60.93;100559.69;4962697;28;20931;-78
2022/05/02 08:12:33;;;;;;;11.05;3.60;;;;;;;17.25;57.66;100578.97;4963101;28;20116;-78
2022/05/02 08:15:11;;;;;;;8.63;3.47;;;;;;;17.23;59.96;100570.25;4970843;28;20047;-77
2022/05/02 08:18:04;;;;;;;13.20;3.10;;;;;;;17.29;62.03;100541.63;4971263;28;20117;-77
2022/05/02 08:20:48;;;;;;;11.75;3.92;;;;;;;17.62;60.06;100561.97;4966152;28;20110;-77
2022/05/02 08:29:23;;;;;;;8.32;3.17;;;;;;;17.62;60.98;100568.94;4964293;28;20029;-77
2022/05/02 08:31:58;;;;;;;8.10;3.75;;;;;;;17.57;60.37;100521.88;4961612;28;20034;-77
2022/05/02 08:34:34;;;;;;;26.73;5.97;;;;;;;17.70;61.08;100550.72;4961113;28;20043;-77
2022/05/02 08:37:05;;;;;;;16.90;4.38;;;;;;;17.58;59.61;100541.91;4962326;28;20031;-76
2022/05/02 08:40:04;;;;;;;15.23;4.30;;;;;;;17.66;61.84;100541.97;4961863;28;20070;-76
2022/05/02 08:42:47;;;;;;;16.48;5.35;;;;;;;17.79;60.88;100522.06;4962245;28;20035;-76
2022/05/02 08:45:43;;;;;;;10.73;3.85;;;;;;;17.72;60.57;100525.47;4969854;28;20100;-78
2022/05/02 08:48:46;;;;;;;10.65;4.03;;;;;;;17.81;62.00;100515.13;5042138;28;20032;-78
2022/05/02 08:51:11;;;;;;;7.97;3.75;;;;;;;17.85;61.74;100510.81;5041602;28;20078;-78
2022/05/02 08:53:55;;;;;;;14.75;4.20;;;;;;;17.86;60.93;100505.59;5045426;28;20435;-77
2022/05/02 08:56:28;;;;;;;7.85;3.85;;;;;;;17.68;60.42;100501.06;5041332;28;20033;-77
2022/05/02 08:59:10;;;;;;;6.75;3.67;;;;;;;17.53;60.56;100495.75;5048282;28;20033;-78
2022/05/02 09:02:03;;;;;;;9.68;3.47;;;;;;;17.45;60.99;100493.06;5005639;28;20516;-77
2022/05/02 09:04:47;;;;;;;8.45;4.47;;;;;;;17.49;60.68;100489.63;5050913;28;20047;-77
2022/05/02 09:07:35;;;;;;;7.28;3.17;;;;;;;17.72;62.55;100486.31;5047473;28;20028;-76
2022/05/02 09:10:17;;;;;;;4.90;2.80;;;;;;;17.58;60.61;100442.72;4969456;28;20050;-77
2022/05/02 09:13:09;;;;;;;13.15;3.40;;;;;;;17.75;61.27;100476.78;4965820;28;20039;-75
2022/05/02 09:15:47;;;;;;;23.23;5.63;;;;;;;17.76;60.69;100475.06;4969512;28;20039;-76
2022/05/02 09:18:50;;;;;;;7.10;3.30;;;;;;;17.95;61.70;100461.28;4960825;28;20034;-79
2022/05/02 09:21:43;;;;;;;9.25;3.65;;;;;;;18.09;59.87;100455.25;4961013;28;20054;-79
2022/05/02 09:24:18;;;;;;;10.05;3.38;;;;;;;18.09;59.66;100457.88;4959876;28;20128;-79
2022/05/02 09:26:49;;;;;;;6.95;3.50;;;;;;;18.15;59.21;100451.81;4947981;28;20031;-77
2022/05/02 09:29:20;;;;;;;10.00;3.67;;;;;;;18.35;58.56;100447.56;4967090;28;20100;-78
2022/05/02 09:31:58;;;;;;;13.30;4.45;;;;;;;18.58;59.03;100446.81;4968882;28;20030;-77
2022/05/02 09:34:44;;;;;;;14.52;3.72;;;;;;;18.83;57.54;100450.34;4968674;28;20497;-77
2022/05/02 09:37:22;;;;;;;11.85;3.40;;;;;;;18.94;58.18;100457.38;4952529;28;20051;-74
2022/05/02 09:40:03;;;;;;;14.75;4.00;;;;;;;19.03;56.93;100444.34;4970175;28;20081;-76
2022/05/02 09:43:13;;;;;;;6.30;2.95;;;;;;;19.17;56.18;100444.34;4969758;28;20062;-79
2022/05/02 09:51:54;;;;;;;12.25;3.80;;;;;;;19.27;52.64;100429.53;5049763;28;20036;-76
2022/05/02 09:58:05;;;;;;;18.45;4.30;;;;;;;18.90;55.28;100443.38;4966560;28;20093;-78
2022/05/02 10:01:17;;;;;;;19.35;4.25;;;;;;;18.90;56.14;100446.00;4963766;28;20069;-76
2022/05/02 10:04:01;;;;;;;13.45;3.90;;;;;;;19.00;54.46;100446.94;4967169;28;20489;-73
2022/05/02 10:06:31;;;;;;;16.42;4.57;;;;;;;19.15;53.64;100428.66;4968943;28;20050;-77
2022/05/02 10:09:17;;;;;;;20.10;4.80;;;;;;;19.14;54.84;100402.47;4952691;28;20043;-78
2022/05/02 10:12:20;;;;;;;9.10;2.97;;;;;;;19.71;52.94;100431.25;4968324;28;20057;-81
2022/05/02 10:15:00;;;;;;;11.25;2.97;;;;;;;19.89;50.20;100409.44;4968559;28;20046;-79
2022/05/02 10:17:38;;;;;;;7.40;2.70;;;;;;;20.02;50.09;100395.38;4966664;28;20023;-77
2022/05/02 10:20:06;;;;;;;9.20;2.50;;;;;;;20.07;50.46;100426.84;4966462;28;20720;-77
2022/05/02 10:22:50;;;;;;;11.25;3.25;;;;;;;20.20;49.29;100433.78;4951161;28;20057;-77
2022/05/02 10:25:43;;;;;;;4.07;2.22;;;;;;;20.01;50.07;100406.78;4967639;28;20035;-78
2022/05/02 10:28:53;;;;;;;5.80;2.92;;;;;;;19.87;51.45;100434.75;4965919;28;20126;-77
2022/05/02 10:31:25;;;;;;;4.88;2.25;;;;;;;19.75;49.13;100395.44;4909772;29;20083;-77
2022/05/02 10:33:52;;;;;;;7.30;2.40;;;;;;;19.68;50.52;100420.78;4933925;28;20047;-77
2022/05/02 10:36:28;;;;;;;4.15;2.50;;;;;;;19.22;51.57;100382.41;4966639;28;20051;-76
2022/05/02 10:38:56;;;;;;;35.83;5.38;;;;;;;19.48;51.34;100403.34;4965831;28;20038;-78
2022/05/02 10:41:27;;;;;;;21.13;4.75;;;;;;;19.56;51.52;100405.94;4944661;28;20043;-78
2022/05/02 10:44:00;;;;;;;8.05;2.70;;;;;;;19.53;51.78;100396.34;4961991;28;20066;-80
2022/05/02 10:46:28;;;;;;;11.63;3.55;;;;;;;19.45;52.18;100360.56;4965786;28;20121;-79
2022/05/02 10:49:00;;;;;;;29.13;7.13;;;;;;;19.61;52.44;100395.47;4949836;28;20492;-77
2022/05/02 10:51:44;;;;;;;20.10;5.00;;;;;;;19.60;51.89;100396.34;4963339;28;20035;-78
2022/05/02 10:54:42;;;;;;;24.15;5.93;;;;;;;19.65;50.21;100400.72;4962075;28;20049;-78
2022/05/02 10:57:24;;;;;;;16.42;3.55;;;;;;;19.60;52.24;100392.00;4967408;28;20174;-79
2022/05/02 10:59:52;;;;;;;14.50;3.88;;;;;;;19.44;51.90;100390.25;4969137;28;20038;-72
2022/05/02 11:02:35;;;;;;;13.20;2.78;;;;;;;19.52;53.53;100393.75;4972269;28;20043;-76
2022/05/02 11:05:20;;;;;;;19.23;3.65;;;;;;;18.96;52.22;100332.69;4954983;28;20559;-79
2022/05/02 11:07:53;;;;;;;9.40;3.15;;;;;;;19.35;52.60;100380.66;5009698;28;20410;-75
2022/05/02 11:10:22;;;;;;;9.30;3.17;;;;;;;19.26;50.97;100349.25;5052241;28;20506;-78
2022/05/02 11:13:22;;;;;;;7.32;2.55;;;;;;;19.43;52.19;100368.44;5053319;28;20060;-75
2022/05/02 11:16:02;;;;;;;10.40;3.08;;;;;;;19.38;52.47;100346.63;4951369;29;20424;-78
2022/05/02 11:21:48;;;;;;;11.20;3.08;;;;;;;19.60;50.81;100371.03;4951122;29;20632;-77
2022/05/02 11:24:34;;;;;;;9.35;2.88;;;;;;;19.34;50.29;100334.41;4951628;29;20031;-80
2022/05/02 11:27:12;;;;;;;5.45;2.33;;;;;;;19.20;51.33;100319.63;4950577;29;20039;-76
2022/05/02 11:30:02;;;;;;;5.13;2.67;;;;;;;19.37;49.89;100363.22;4951080;29;20094;-77
2022/05/02 11:32:37;;;;;;;11.88;2.50;;;;;;;19.32;51.85;100365.81;4952035;29;20035;-77
2022/05/02 11:35:12;;;;;;;5.47;2.40;;;;;;;19.34;51.90;100350.09;4952499;29;20039;-79
2022/05/02 11:37:54;;;;;;;7.80;2.55;;;;;;;19.47;50.30;100354.47;4952703;29;20046;-79
2022/05/02 11:40:27;;;;;;;7.95;2.35;;;;;;;19.44;50.53;100349.25;4936312;29;20854;-78
2022/05/02 11:42:54;;;;;;;6.85;3.13;;;;;;;19.28;49.96;100316.09;4952351;29;20150;-77
2022/05/02 11:45:31;;;;;;;6.90;2.30;;;;;;;19.30;50.88;100311.72;4952860;29;20052;-78
2022/05/02 11:48:09;;;;;;;7.63;2.75;;;;;;;19.52;50.71;100359.69;4951838;29;20102;-76
2022/05/02 11:50:43;;;;;;;4.70;2.60;;;;;;;19.44;50.71;100346.63;4968926;28;20049;-77
2022/05/02 11:53:14;;;;;;;9.23;2.90;;;;;;;19.60;51.54;100343.97;5051844;28;20170;-78
2022/05/02 11:55:44;;;;;;;8.82;3.10;;;;;;;19.64;51.36;100345.69;4992770;28;20419;-76
2022/05/02 11:58:12;;;;;;;5.97;2.80;;;;;;;19.74;51.23;100342.19;5032630;28;20021;-78
2022/05/02 12:00:42;;;;;;;4.90;2.28;;;;;;;19.72;50.03;100334.31;5047042;28;20041;-77
2022/05/02 12:03:22;;;;;;;6.03;2.58;;;;;;;19.65;49.56;100310.78;5045208;28;20135;-74
2022/05/02 12:05:55;;;;;;;6.70;2.60;;;;;;;19.78;52.01;100333.44;5051310;28;20123;-76
2022/05/02 12:08:38;;;;;;;8.68;3.00;;;;;;;19.96;50.96;100321.19;5051051;28;20022;-74
2022/05/02 12:11:05;;;;;;;10.05;3.00;;;;;;;19.93;50.57;100303.72;5051433;28;20056;-77
2022/05/02 12:13:36;;;;;;;7.72;2.78;;;;;;;19.93;50.69;100295.00;5050823;28;20025;-76
2022/05/02 12:16:22;;;;;;;6.35;2.78;;;;;;;20.07;48.66;100306.28;5051718;28;20020;-77
2022/05/02 12:18:48;;;;;;;6.15;2.95;;;;;;;20.26;47.95;100314.06;5049387;28;20041;-76